This is the latest recevied weather packets stored in our database for station/object LU4EGV-13. If no packets are shown the sender has not sent any weather packets the latest 10 day(s).
| Time | Temp. | Humidity | Pressure | Rain* | Wind** | Luminosity | Snow |
|---|---|---|---|---|---|---|---|
| 1777478922 | 21.11° C | 47% | 1008 hPa | 3.05 mm | - | - | - |
| 1777478315 | 21.11° C | 49% | 1008.1 hPa | 1.52 mm | - | - | - |
| 1777477709 | 20.56° C | 50% | 1008.3 hPa | 1.27 mm | - | - | - |
| 1777477103 | 20.56° C | 51% | 1008.2 hPa | 0.25 mm | - | - | - |
| 1777476498 | 20.56° C | 52% | 1008.3 hPa | 0 mm | - | - | - |
| 1777475891 | 21.11° C | 52% | 1008.1 hPa | 0 mm | - | - | - |
| 1777475284 | 20.56° C | 54% | 1007.9 hPa | 0 mm | - | - | - |
| 1777474679 | 19.44° C | 55% | 1008.4 hPa | 0 mm | - | - | - |
| 1777474072 | 19.44° C | 55% | 1008.1 hPa | 0 mm | - | - | - |
| 1777473467 | 18.89° C | 56% | 1007.9 hPa | 0 mm | - | - | - |
| 1777472859 | 19.44° C | 54% | 1008 hPa | 0 mm | - | - | - |
| 1777472265 | 19.44° C | 54% | 1007.8 hPa | 0 mm | - | - | - |
| 1777471132 | 18.33° C | 57% | 1007.5 hPa | 0 mm | - | - | - |
| 1777470526 | 17.78° C | 57% | 1007.7 hPa | 0 mm | - | - | - |
| 1777469918 | 17.78° C | 58% | 1007.8 hPa | 0 mm | - | - | - |
| 1777469324 | 17.22° C | 59% | 1007.9 hPa | 0 mm | - | - | - |
| 1777468706 | 17.22° C | 59% | 1008.2 hPa | 0 mm | - | - | - |
| 1777468101 | 16.67° C | 60% | 1008.2 hPa | 0 mm | - | - | - |
| 1777467495 | 16.67° C | 61% | 1008.4 hPa | 0 mm | - | - | - |
| 1777466888 | 16.11° C | 62% | 1008.2 hPa | 0 mm | - | - | - |
| 1777466283 | 16.11° C | 63% | 1008.3 hPa | 0 mm | - | - | - |
| 1777465675 | 16.11° C | 64% | 1007.9 hPa | 0 mm | - | - | - |
| 1777465070 | 15.56° C | 63% | 1007.4 hPa | 0 mm | - | - | - |
| 1777464475 | 15.56° C | 63% | 1007.3 hPa | 0 mm | - | - | - |
| 1777463857 | 15.56° C | 62% | 1007.5 hPa | 0 mm | - | - | - |
* Rain latest hour (hover to see other rain measurements)
** Current wind speed in m/s (hover to see current wind gust speed)